Vulcan, Canada
Current Conditions -  °F | °C
As of 6:00 AM on Sunday 21 Dec 2014 (Local Time) from CYQL Reporting Station
Scattered Clouds Scattered Clouds  
Wind Chill: 28°   Ceiling: Unl
Heat Index: 39°   Visibility: 15mi
Dew Point: 30°   Wind: 26mph
Humidity: 70%   Direction: 240°WSW
Pressure: 29.18"   Gusts: NA
Location:  50.4°N, 113.25°W
Report Text: CYQL 211300Z 24023KT 15SM SCT170 04/M01 A2918 RMK AC4 SLP908 DENSITY ALT 3200FT
Loading
Personal Weather Stations






























Interactive Weather Map New forecast layout! Learn more

10-Day Weather Forecast

Advertisements
Track Severe Weather on mobile